﻿<?xml version="1.0" encoding="UTF-8" standalone="no" ?>
<gpx xmlns="http://www.topografix.com/GPX/1/1" creator="CompeGPS" version="1.1" xmlns:xsi="http://www.w3.org/2001/XMLSchema-instance" xsi:schemaLocation="http://www.topografix.com/GPX/1/1 http://www.topografix.com/GPX/1/1/gpx.xsd http://www.garmin.com/xmlschemas/GpxExtensions/v3 http://www.garmin.com/xmlschemas/GpxExtensionsv3.xsd http://www.garmin.com/xmlschemas/TrackPointExtension/v1 http://www.garmin.com/xmlschemas/TrackPointExtensionv1.xsd" xmlns:gpxtpx="http://www.garmin.com/xmlschemas/TrackPointExtension/v1">
  <metadata>
    <link href="http://www.compegps.com">
      <text>CompeGPS TEAM, SL</text>
    </link>
    <time>2020-11-29T12:36:58Z</time>
    <bounds maxlat="44.622139" maxlon="6.712297" minlat="44.610545" minlon="6.698835"/>
  </metadata>
  <trk>
    <name>Rando_373</name>
    <trkseg>
      <trkpt lat="44.610773" lon="6.699072">
        <ele>2041.4</ele>
        <time>2020-07-16T06:34:55Z</time>
      </trkpt>
      <trkpt lat="44.610810" lon="6.699160">
        <ele>2043.4</ele>
        <time>2020-07-16T06:48:30Z</time>
      </trkpt>
      <trkpt lat="44.610813" lon="6.699280">
        <ele>2047.6</ele>
        <time>2020-07-16T06:48:46Z</time>
      </trkpt>
      <trkpt lat="44.610750" lon="6.699365">
        <ele>2051.3</ele>
        <time>2020-07-16T06:49:01Z</time>
      </trkpt>
      <trkpt lat="44.610680" lon="6.699432">
        <ele>2052.8</ele>
        <time>2020-07-16T06:49:26Z</time>
      </trkpt>
      <trkpt lat="44.610673" lon="6.699555">
        <ele>2055.6</ele>
        <time>2020-07-16T06:49:42Z</time>
      </trkpt>
      <trkpt lat="44.610665" lon="6.699632">
        <ele>2059.5</ele>
        <time>2020-07-16T06:50:10Z</time>
      </trkpt>
      <trkpt lat="44.610683" lon="6.699747">
        <ele>2064.6</ele>
        <time>2020-07-16T06:50:19Z</time>
      </trkpt>
      <trkpt lat="44.610677" lon="6.699870">
        <ele>2067.6</ele>
        <time>2020-07-16T06:50:34Z</time>
      </trkpt>
      <trkpt lat="44.610690" lon="6.699992">
        <ele>2069.9</ele>
        <time>2020-07-16T06:50:46Z</time>
      </trkpt>
      <trkpt lat="44.610778" lon="6.700013">
        <ele>2075.6</ele>
        <time>2020-07-16T06:51:18Z</time>
      </trkpt>
      <trkpt lat="44.610858" lon="6.699962">
        <ele>2080.0</ele>
        <time>2020-07-16T06:51:37Z</time>
      </trkpt>
      <trkpt lat="44.610940" lon="6.699925">
        <ele>2084.6</ele>
        <time>2020-07-16T06:51:57Z</time>
      </trkpt>
      <trkpt lat="44.611028" lon="6.699910">
        <ele>2089.7</ele>
        <time>2020-07-16T06:52:20Z</time>
      </trkpt>
      <trkpt lat="44.611113" lon="6.699893">
        <ele>2095.0</ele>
        <time>2020-07-16T06:52:43Z</time>
      </trkpt>
      <trkpt lat="44.611167" lon="6.699903">
        <ele>2095.8</ele>
        <time>2020-07-16T06:53:01Z</time>
      </trkpt>
      <trkpt lat="44.611255" lon="6.699902">
        <ele>2097.2</ele>
        <time>2020-07-16T06:53:09Z</time>
      </trkpt>
      <trkpt lat="44.611343" lon="6.699905">
        <ele>2099.6</ele>
        <time>2020-07-16T06:53:26Z</time>
      </trkpt>
      <trkpt lat="44.611413" lon="6.699902">
        <ele>2102.5</ele>
        <time>2020-07-16T06:53:47Z</time>
      </trkpt>
      <trkpt lat="44.611502" lon="6.699920">
        <ele>2103.6</ele>
        <time>2020-07-16T06:53:56Z</time>
      </trkpt>
      <trkpt lat="44.611590" lon="6.699940">
        <ele>2105.5</ele>
        <time>2020-07-16T06:54:10Z</time>
      </trkpt>
      <trkpt lat="44.611652" lon="6.700020">
        <ele>2105.8</ele>
        <time>2020-07-16T06:54:21Z</time>
      </trkpt>
      <trkpt lat="44.611715" lon="6.700105">
        <ele>2107.7</ele>
        <time>2020-07-16T06:54:35Z</time>
      </trkpt>
      <trkpt lat="44.611783" lon="6.700173">
        <ele>2110.9</ele>
        <time>2020-07-16T06:55:16Z</time>
      </trkpt>
      <trkpt lat="44.611867" lon="6.700205">
        <ele>2115.9</ele>
        <time>2020-07-16T06:55:19Z</time>
      </trkpt>
      <trkpt lat="44.611948" lon="6.700235">
        <ele>2118.4</ele>
        <time>2020-07-16T06:55:34Z</time>
      </trkpt>
      <trkpt lat="44.612032" lon="6.700253">
        <ele>2119.4</ele>
        <time>2020-07-16T06:55:48Z</time>
      </trkpt>
      <trkpt lat="44.612110" lon="6.700295">
        <ele>2122.1</ele>
        <time>2020-07-16T06:56:06Z</time>
      </trkpt>
      <trkpt lat="44.612180" lon="6.700372">
        <ele>2124.9</ele>
        <time>2020-07-16T06:56:21Z</time>
      </trkpt>
      <trkpt lat="44.612247" lon="6.700452">
        <ele>2127.8</ele>
        <time>2020-07-16T06:56:36Z</time>
      </trkpt>
      <trkpt lat="44.612333" lon="6.700480">
        <ele>2132.0</ele>
        <time>2020-07-16T06:56:55Z</time>
      </trkpt>
      <trkpt lat="44.612422" lon="6.700487">
        <ele>2134.4</ele>
        <time>2020-07-16T06:57:16Z</time>
      </trkpt>
      <trkpt lat="44.612470" lon="6.700548">
        <ele>2133.5</ele>
        <time>2020-07-16T06:57:42Z</time>
      </trkpt>
      <trkpt lat="44.612547" lon="6.700603">
        <ele>2135.7</ele>
        <time>2020-07-16T06:57:52Z</time>
      </trkpt>
      <trkpt lat="44.612632" lon="6.700623">
        <ele>2134.3</ele>
        <time>2020-07-16T06:58:08Z</time>
      </trkpt>
      <trkpt lat="44.612710" lon="6.700682">
        <ele>2136.4</ele>
        <time>2020-07-16T06:58:51Z</time>
      </trkpt>
      <trkpt lat="44.612768" lon="6.700587">
        <ele>2142.0</ele>
        <time>2020-07-16T06:59:26Z</time>
      </trkpt>
      <trkpt lat="44.612790" lon="6.700467">
        <ele>2145.4</ele>
        <time>2020-07-16T06:59:43Z</time>
      </trkpt>
      <trkpt lat="44.612835" lon="6.700363">
        <ele>2146.5</ele>
        <time>2020-07-16T07:00:04Z</time>
      </trkpt>
      <trkpt lat="44.612885" lon="6.700268">
        <ele>2146.7</ele>
        <time>2020-07-16T07:00:20Z</time>
      </trkpt>
      <trkpt lat="44.612925" lon="6.700162">
        <ele>2148.4</ele>
        <time>2020-07-16T07:00:36Z</time>
      </trkpt>
      <trkpt lat="44.612962" lon="6.700052">
        <ele>2149.2</ele>
        <time>2020-07-16T07:00:49Z</time>
      </trkpt>
      <trkpt lat="44.613022" lon="6.699963">
        <ele>2148.6</ele>
        <time>2020-07-16T07:01:03Z</time>
      </trkpt>
      <trkpt lat="44.613098" lon="6.699902">
        <ele>2148.0</ele>
        <time>2020-07-16T07:01:21Z</time>
      </trkpt>
      <trkpt lat="44.613183" lon="6.699907">
        <ele>2147.9</ele>
        <time>2020-07-16T07:01:37Z</time>
      </trkpt>
      <trkpt lat="44.613267" lon="6.699885">
        <ele>2148.4</ele>
        <time>2020-07-16T07:01:51Z</time>
      </trkpt>
      <trkpt lat="44.613335" lon="6.699813">
        <ele>2149.8</ele>
        <time>2020-07-16T07:02:03Z</time>
      </trkpt>
      <trkpt lat="44.613405" lon="6.699743">
        <ele>2151.1</ele>
        <time>2020-07-16T07:02:16Z</time>
      </trkpt>
      <trkpt lat="44.613480" lon="6.699680">
        <ele>2153.1</ele>
        <time>2020-07-16T07:02:30Z</time>
      </trkpt>
      <trkpt lat="44.613562" lon="6.699640">
        <ele>2155.9</ele>
        <time>2020-07-16T07:02:45Z</time>
      </trkpt>
      <trkpt lat="44.613643" lon="6.699593">
        <ele>2161.5</ele>
        <time>2020-07-16T07:03:03Z</time>
      </trkpt>
      <trkpt lat="44.613730" lon="6.699568">
        <ele>2166.5</ele>
        <time>2020-07-16T07:03:20Z</time>
      </trkpt>
      <trkpt lat="44.613817" lon="6.699535">
        <ele>2170.5</ele>
        <time>2020-07-16T07:03:35Z</time>
      </trkpt>
      <trkpt lat="44.613893" lon="6.699505">
        <ele>2174.0</ele>
        <time>2020-07-16T07:03:53Z</time>
      </trkpt>
      <trkpt lat="44.613973" lon="6.699470">
        <ele>2175.8</ele>
        <time>2020-07-16T07:04:06Z</time>
      </trkpt>
      <trkpt lat="44.614055" lon="6.699462">
        <ele>2178.8</ele>
        <time>2020-07-16T07:04:27Z</time>
      </trkpt>
      <trkpt lat="44.614138" lon="6.699462">
        <ele>2179.0</ele>
        <time>2020-07-16T07:04:40Z</time>
      </trkpt>
      <trkpt lat="44.614218" lon="6.699407">
        <ele>2179.2</ele>
        <time>2020-07-16T07:04:54Z</time>
      </trkpt>
      <trkpt lat="44.614297" lon="6.699347">
        <ele>2180.6</ele>
        <time>2020-07-16T07:05:07Z</time>
      </trkpt>
      <trkpt lat="44.614358" lon="6.699258">
        <ele>2182.3</ele>
        <time>2020-07-16T07:05:19Z</time>
      </trkpt>
      <trkpt lat="44.614425" lon="6.699178">
        <ele>2185.1</ele>
        <time>2020-07-16T07:05:31Z</time>
      </trkpt>
      <trkpt lat="44.614483" lon="6.699088">
        <ele>2187.8</ele>
        <time>2020-07-16T07:05:43Z</time>
      </trkpt>
      <trkpt lat="44.614552" lon="6.699008">
        <ele>2190.2</ele>
        <time>2020-07-16T07:05:56Z</time>
      </trkpt>
      <trkpt lat="44.614630" lon="6.698953">
        <ele>2193.2</ele>
        <time>2020-07-16T07:06:14Z</time>
      </trkpt>
      <trkpt lat="44.614710" lon="6.698905">
        <ele>2194.8</ele>
        <time>2020-07-16T07:06:27Z</time>
      </trkpt>
      <trkpt lat="44.614790" lon="6.698868">
        <ele>2197.1</ele>
        <time>2020-07-16T07:06:39Z</time>
      </trkpt>
      <trkpt lat="44.614868" lon="6.698835">
        <ele>2199.5</ele>
        <time>2020-07-16T07:06:52Z</time>
      </trkpt>
      <trkpt lat="44.614950" lon="6.698885">
        <ele>2201.4</ele>
        <time>2020-07-16T07:07:07Z</time>
      </trkpt>
      <trkpt lat="44.615037" lon="6.698887">
        <ele>2203.5</ele>
        <time>2020-07-16T07:07:26Z</time>
      </trkpt>
      <trkpt lat="44.615117" lon="6.698927">
        <ele>2205.5</ele>
        <time>2020-07-16T07:07:57Z</time>
      </trkpt>
      <trkpt lat="44.615200" lon="6.698923">
        <ele>2204.4</ele>
        <time>2020-07-16T07:08:11Z</time>
      </trkpt>
      <trkpt lat="44.615283" lon="6.698935">
        <ele>2204.8</ele>
        <time>2020-07-16T07:08:25Z</time>
      </trkpt>
      <trkpt lat="44.615365" lon="6.698923">
        <ele>2204.9</ele>
        <time>2020-07-16T07:08:40Z</time>
      </trkpt>
      <trkpt lat="44.615450" lon="6.698960">
        <ele>2204.6</ele>
        <time>2020-07-16T07:08:56Z</time>
      </trkpt>
      <trkpt lat="44.615537" lon="6.698978">
        <ele>2204.9</ele>
        <time>2020-07-16T07:09:11Z</time>
      </trkpt>
      <trkpt lat="44.615618" lon="6.699003">
        <ele>2204.2</ele>
        <time>2020-07-16T07:09:23Z</time>
      </trkpt>
      <trkpt lat="44.615705" lon="6.698985">
        <ele>2206.5</ele>
        <time>2020-07-16T07:09:41Z</time>
      </trkpt>
      <trkpt lat="44.615793" lon="6.698983">
        <ele>2208.3</ele>
        <time>2020-07-16T07:09:58Z</time>
      </trkpt>
      <trkpt lat="44.615882" lon="6.698977">
        <ele>2209.6</ele>
        <time>2020-07-16T07:10:17Z</time>
      </trkpt>
      <trkpt lat="44.615968" lon="6.698957">
        <ele>2210.1</ele>
        <time>2020-07-16T07:10:34Z</time>
      </trkpt>
      <trkpt lat="44.616045" lon="6.698972">
        <ele>2211.1</ele>
        <time>2020-07-16T07:10:53Z</time>
      </trkpt>
      <trkpt lat="44.616133" lon="6.698980">
        <ele>2211.6</ele>
        <time>2020-07-16T07:11:05Z</time>
      </trkpt>
      <trkpt lat="44.616218" lon="6.698977">
        <ele>2214.9</ele>
        <time>2020-07-16T07:11:23Z</time>
      </trkpt>
      <trkpt lat="44.616305" lon="6.698990">
        <ele>2217.1</ele>
        <time>2020-07-16T07:11:41Z</time>
      </trkpt>
      <trkpt lat="44.616300" lon="6.699113">
        <ele>2220.7</ele>
        <time>2020-07-16T07:12:10Z</time>
      </trkpt>
      <trkpt lat="44.616378" lon="6.699170">
        <ele>2223.5</ele>
        <time>2020-07-16T07:12:30Z</time>
      </trkpt>
      <trkpt lat="44.616430" lon="6.699267">
        <ele>2226.7</ele>
        <time>2020-07-16T07:12:52Z</time>
      </trkpt>
      <trkpt lat="44.616517" lon="6.699273">
        <ele>2228.8</ele>
        <time>2020-07-16T07:13:08Z</time>
      </trkpt>
      <trkpt lat="44.616605" lon="6.699250">
        <ele>2232.2</ele>
        <time>2020-07-16T07:13:25Z</time>
      </trkpt>
      <trkpt lat="44.616690" lon="6.699273">
        <ele>2233.8</ele>
        <time>2020-07-16T07:13:41Z</time>
      </trkpt>
      <trkpt lat="44.616768" lon="6.699333">
        <ele>2236.2</ele>
        <time>2020-07-16T07:13:56Z</time>
      </trkpt>
      <trkpt lat="44.616857" lon="6.699343">
        <ele>2238.1</ele>
        <time>2020-07-16T07:14:09Z</time>
      </trkpt>
      <trkpt lat="44.616943" lon="6.699367">
        <ele>2239.5</ele>
        <time>2020-07-16T07:14:23Z</time>
      </trkpt>
      <trkpt lat="44.617008" lon="6.699453">
        <ele>2240.8</ele>
        <time>2020-07-16T07:14:37Z</time>
      </trkpt>
      <trkpt lat="44.617097" lon="6.699438">
        <ele>2244.0</ele>
        <time>2020-07-16T07:14:54Z</time>
      </trkpt>
      <trkpt lat="44.617155" lon="6.699343">
        <ele>2246.7</ele>
        <time>2020-07-16T07:15:07Z</time>
      </trkpt>
      <trkpt lat="44.617232" lon="6.699278">
        <ele>2249.0</ele>
        <time>2020-07-16T07:15:23Z</time>
      </trkpt>
      <trkpt lat="44.617317" lon="6.699252">
        <ele>2252.5</ele>
        <time>2020-07-16T07:15:41Z</time>
      </trkpt>
      <trkpt lat="44.617398" lon="6.699222">
        <ele>2255.4</ele>
        <time>2020-07-16T07:15:57Z</time>
      </trkpt>
      <trkpt lat="44.617483" lon="6.699232">
        <ele>2257.4</ele>
        <time>2020-07-16T07:16:09Z</time>
      </trkpt>
      <trkpt lat="44.617570" lon="6.699240">
        <ele>2258.3</ele>
        <time>2020-07-16T07:16:24Z</time>
      </trkpt>
      <trkpt lat="44.617658" lon="6.699243">
        <ele>2258.6</ele>
        <time>2020-07-16T07:16:36Z</time>
      </trkpt>
      <trkpt lat="44.617747" lon="6.699245">
        <ele>2258.3</ele>
        <time>2020-07-16T07:16:50Z</time>
      </trkpt>
      <trkpt lat="44.617833" lon="6.699265">
        <ele>2260.1</ele>
        <time>2020-07-16T07:17:03Z</time>
      </trkpt>
      <trkpt lat="44.617920" lon="6.699298">
        <ele>2262.0</ele>
        <time>2020-07-16T07:17:19Z</time>
      </trkpt>
      <trkpt lat="44.618002" lon="6.699350">
        <ele>2261.9</ele>
        <time>2020-07-16T07:17:33Z</time>
      </trkpt>
      <trkpt lat="44.618067" lon="6.699423">
        <ele>2263.5</ele>
        <time>2020-07-16T07:17:45Z</time>
      </trkpt>
      <trkpt lat="44.618125" lon="6.699518">
        <ele>2263.5</ele>
        <time>2020-07-16T07:17:55Z</time>
      </trkpt>
      <trkpt lat="44.618190" lon="6.699592">
        <ele>2263.4</ele>
        <time>2020-07-16T07:18:05Z</time>
      </trkpt>
      <trkpt lat="44.618257" lon="6.699670">
        <ele>2264.1</ele>
        <time>2020-07-16T07:18:15Z</time>
      </trkpt>
      <trkpt lat="44.618327" lon="6.699743">
        <ele>2264.9</ele>
        <time>2020-07-16T07:18:27Z</time>
      </trkpt>
      <trkpt lat="44.618380" lon="6.699828">
        <ele>2266.0</ele>
        <time>2020-07-16T07:18:41Z</time>
      </trkpt>
      <trkpt lat="44.618440" lon="6.699917">
        <ele>2267.2</ele>
        <time>2020-07-16T07:18:52Z</time>
      </trkpt>
      <trkpt lat="44.618485" lon="6.700022">
        <ele>2268.3</ele>
        <time>2020-07-16T07:19:05Z</time>
      </trkpt>
      <trkpt lat="44.618552" lon="6.700115">
        <ele>2270.0</ele>
        <time>2020-07-16T07:19:21Z</time>
      </trkpt>
      <trkpt lat="44.618628" lon="6.700160">
        <ele>2271.0</ele>
        <time>2020-07-16T07:19:33Z</time>
      </trkpt>
      <trkpt lat="44.618708" lon="6.700207">
        <ele>2271.6</ele>
        <time>2020-07-16T07:19:55Z</time>
      </trkpt>
      <trkpt lat="44.618785" lon="6.700248">
        <ele>2272.3</ele>
        <time>2020-07-16T07:20:12Z</time>
      </trkpt>
      <trkpt lat="44.618865" lon="6.700300">
        <ele>2273.0</ele>
        <time>2020-07-16T07:20:25Z</time>
      </trkpt>
      <trkpt lat="44.618938" lon="6.700370">
        <ele>2274.0</ele>
        <time>2020-07-16T07:20:40Z</time>
      </trkpt>
      <trkpt lat="44.619020" lon="6.700403">
        <ele>2274.9</ele>
        <time>2020-07-16T07:20:50Z</time>
      </trkpt>
      <trkpt lat="44.619105" lon="6.700440">
        <ele>2276.1</ele>
        <time>2020-07-16T07:21:06Z</time>
      </trkpt>
      <trkpt lat="44.619178" lon="6.700383">
        <ele>2277.0</ele>
        <time>2020-07-16T07:21:18Z</time>
      </trkpt>
      <trkpt lat="44.619258" lon="6.700332">
        <ele>2277.7</ele>
        <time>2020-07-16T07:21:29Z</time>
      </trkpt>
      <trkpt lat="44.619337" lon="6.700272">
        <ele>2278.2</ele>
        <time>2020-07-16T07:21:41Z</time>
      </trkpt>
      <trkpt lat="44.619413" lon="6.700212">
        <ele>2278.8</ele>
        <time>2020-07-16T07:21:53Z</time>
      </trkpt>
      <trkpt lat="44.619500" lon="6.700203">
        <ele>2279.3</ele>
        <time>2020-07-16T07:22:08Z</time>
      </trkpt>
      <trkpt lat="44.619583" lon="6.700227">
        <ele>2278.8</ele>
        <time>2020-07-16T07:22:19Z</time>
      </trkpt>
      <trkpt lat="44.619672" lon="6.700243">
        <ele>2278.3</ele>
        <time>2020-07-16T07:22:34Z</time>
      </trkpt>
      <trkpt lat="44.619755" lon="6.700278">
        <ele>2278.7</ele>
        <time>2020-07-16T07:22:45Z</time>
      </trkpt>
      <trkpt lat="44.619842" lon="6.700290">
        <ele>2279.3</ele>
        <time>2020-07-16T07:22:58Z</time>
      </trkpt>
      <trkpt lat="44.619928" lon="6.700265">
        <ele>2279.9</ele>
        <time>2020-07-16T07:23:15Z</time>
      </trkpt>
      <trkpt lat="44.620015" lon="6.700278">
        <ele>2281.9</ele>
        <time>2020-07-16T07:23:33Z</time>
      </trkpt>
      <trkpt lat="44.620102" lon="6.700250">
        <ele>2284.3</ele>
        <time>2020-07-16T07:23:55Z</time>
      </trkpt>
      <trkpt lat="44.620187" lon="6.700262">
        <ele>2285.2</ele>
        <time>2020-07-16T07:24:08Z</time>
      </trkpt>
      <trkpt lat="44.620265" lon="6.700318">
        <ele>2286.6</ele>
        <time>2020-07-16T07:24:23Z</time>
      </trkpt>
      <trkpt lat="44.620195" lon="6.700385">
        <ele>2289.4</ele>
        <time>2020-07-16T07:24:44Z</time>
      </trkpt>
      <trkpt lat="44.620253" lon="6.700395">
        <ele>2291.2</ele>
        <time>2020-07-16T07:25:32Z</time>
      </trkpt>
      <trkpt lat="44.620340" lon="6.700390">
        <ele>2295.1</ele>
        <time>2020-07-16T07:25:38Z</time>
      </trkpt>
      <trkpt lat="44.620425" lon="6.700360">
        <ele>2302.5</ele>
        <time>2020-07-16T07:25:58Z</time>
      </trkpt>
      <trkpt lat="44.620513" lon="6.700353">
        <ele>2315.0</ele>
        <time>2020-07-16T07:26:21Z</time>
      </trkpt>
      <trkpt lat="44.620600" lon="6.700338">
        <ele>2322.2</ele>
        <time>2020-07-16T07:26:42Z</time>
      </trkpt>
      <trkpt lat="44.620685" lon="6.700307">
        <ele>2326.0</ele>
        <time>2020-07-16T07:27:01Z</time>
      </trkpt>
      <trkpt lat="44.620788" lon="6.700322">
        <ele>2330.0</ele>
        <time>2020-07-16T07:27:23Z</time>
      </trkpt>
      <trkpt lat="44.620873" lon="6.700337">
        <ele>2333.4</ele>
        <time>2020-07-16T07:27:37Z</time>
      </trkpt>
      <trkpt lat="44.620937" lon="6.700385">
        <ele>2334.7</ele>
        <time>2020-07-16T07:27:56Z</time>
      </trkpt>
      <trkpt lat="44.621033" lon="6.700403">
        <ele>2335.3</ele>
        <time>2020-07-16T07:28:08Z</time>
      </trkpt>
      <trkpt lat="44.621122" lon="6.700427">
        <ele>2337.3</ele>
        <time>2020-07-16T07:28:26Z</time>
      </trkpt>
      <trkpt lat="44.621221" lon="6.700435">
        <ele>2338.0</ele>
        <time>2020-07-16T07:28:48Z</time>
      </trkpt>
      <trkpt lat="44.621307" lon="6.700463">
        <ele>2337.5</ele>
        <time>2020-07-16T07:29:03Z</time>
      </trkpt>
      <trkpt lat="44.621392" lon="6.700488">
        <ele>2335.8</ele>
        <time>2020-07-16T07:29:21Z</time>
      </trkpt>
      <trkpt lat="44.621477" lon="6.700543">
        <ele>2336.1</ele>
        <time>2020-07-16T07:29:41Z</time>
      </trkpt>
      <trkpt lat="44.621560" lon="6.700573">
        <ele>2335.7</ele>
        <time>2020-07-16T07:29:55Z</time>
      </trkpt>
      <trkpt lat="44.621635" lon="6.700603">
        <ele>2336.4</ele>
        <time>2020-07-16T07:30:10Z</time>
      </trkpt>
      <trkpt lat="44.621720" lon="6.700637">
        <ele>2339.3</ele>
        <time>2020-07-16T07:30:25Z</time>
      </trkpt>
      <trkpt lat="44.621808" lon="6.700632">
        <ele>2342.7</ele>
        <time>2020-07-16T07:30:40Z</time>
      </trkpt>
      <trkpt lat="44.621893" lon="6.700623">
        <ele>2346.5</ele>
        <time>2020-07-16T07:30:57Z</time>
      </trkpt>
      <trkpt lat="44.621977" lon="6.700652">
        <ele>2350.2</ele>
        <time>2020-07-16T07:31:12Z</time>
      </trkpt>
      <trkpt lat="44.622062" lon="6.700643">
        <ele>2355.2</ele>
        <time>2020-07-16T07:31:28Z</time>
      </trkpt>
      <trkpt lat="44.622138" lon="6.700587">
        <ele>2359.5</ele>
        <time>2020-07-16T07:31:45Z</time>
      </trkpt>
      <trkpt lat="44.622098" lon="6.700698">
        <ele>2363.9</ele>
        <time>2020-07-16T07:32:07Z</time>
      </trkpt>
      <trkpt lat="44.622040" lon="6.700785">
        <ele>2366.1</ele>
        <time>2020-07-16T07:32:25Z</time>
      </trkpt>
      <trkpt lat="44.621972" lon="6.700867">
        <ele>2368.3</ele>
        <time>2020-07-16T07:32:42Z</time>
      </trkpt>
      <trkpt lat="44.622048" lon="6.700927">
        <ele>2356.5</ele>
        <time>2020-07-16T07:33:34Z</time>
      </trkpt>
      <trkpt lat="44.621962" lon="6.700960">
        <ele>2344.7</ele>
        <time>2020-07-16T07:45:25Z</time>
      </trkpt>
      <trkpt lat="44.621875" lon="6.700987">
        <ele>2342.2</ele>
        <time>2020-07-16T07:45:34Z</time>
      </trkpt>
      <trkpt lat="44.621787" lon="6.700997">
        <ele>2337.8</ele>
        <time>2020-07-16T07:46:04Z</time>
      </trkpt>
      <trkpt lat="44.621772" lon="6.701113">
        <ele>2342.2</ele>
        <time>2020-07-16T07:47:42Z</time>
      </trkpt>
      <trkpt lat="44.621727" lon="6.701213">
        <ele>2354.8</ele>
        <time>2020-07-16T07:48:11Z</time>
      </trkpt>
      <trkpt lat="44.621650" lon="6.701272">
        <ele>2361.3</ele>
        <time>2020-07-16T07:48:26Z</time>
      </trkpt>
      <trkpt lat="44.621567" lon="6.701287">
        <ele>2367.2</ele>
        <time>2020-07-16T07:49:12Z</time>
      </trkpt>
      <trkpt lat="44.621510" lon="6.701378">
        <ele>2370.0</ele>
        <time>2020-07-16T07:49:27Z</time>
      </trkpt>
      <trkpt lat="44.621478" lon="6.701493">
        <ele>2374.6</ele>
        <time>2020-07-16T07:49:44Z</time>
      </trkpt>
      <trkpt lat="44.621487" lon="6.701613">
        <ele>2376.3</ele>
        <time>2020-07-16T07:49:59Z</time>
      </trkpt>
      <trkpt lat="44.621459" lon="6.701507">
        <ele>2375.3</ele>
        <time>2020-07-16T07:50:48Z</time>
      </trkpt>
      <trkpt lat="44.621377" lon="6.701537">
        <ele>2375.2</ele>
        <time>2020-07-16T07:50:55Z</time>
      </trkpt>
      <trkpt lat="44.621293" lon="6.701573">
        <ele>2377.0</ele>
        <time>2020-07-16T07:51:05Z</time>
      </trkpt>
      <trkpt lat="44.621282" lon="6.701688">
        <ele>2380.1</ele>
        <time>2020-07-16T07:51:36Z</time>
      </trkpt>
      <trkpt lat="44.621247" lon="6.701633">
        <ele>2376.3</ele>
        <time>2020-07-16T08:13:10Z</time>
      </trkpt>
      <trkpt lat="44.621158" lon="6.701613">
        <ele>2375.4</ele>
        <time>2020-07-16T08:13:22Z</time>
      </trkpt>
      <trkpt lat="44.621082" lon="6.701652">
        <ele>2375.1</ele>
        <time>2020-07-16T08:13:35Z</time>
      </trkpt>
      <trkpt lat="44.621015" lon="6.701730">
        <ele>2374.4</ele>
        <time>2020-07-16T08:13:45Z</time>
      </trkpt>
      <trkpt lat="44.620943" lon="6.701798">
        <ele>2375.7</ele>
        <time>2020-07-16T08:14:00Z</time>
      </trkpt>
      <trkpt lat="44.620892" lon="6.701898">
        <ele>2375.0</ele>
        <time>2020-07-16T08:14:11Z</time>
      </trkpt>
      <trkpt lat="44.620818" lon="6.701967">
        <ele>2375.2</ele>
        <time>2020-07-16T08:14:24Z</time>
      </trkpt>
      <trkpt lat="44.620748" lon="6.702020">
        <ele>2375.2</ele>
        <time>2020-07-16T08:14:35Z</time>
      </trkpt>
      <trkpt lat="44.620673" lon="6.702080">
        <ele>2374.3</ele>
        <time>2020-07-16T08:14:50Z</time>
      </trkpt>
      <trkpt lat="44.620683" lon="6.702172">
        <ele>2374.3</ele>
        <time>2020-07-16T08:15:15Z</time>
      </trkpt>
      <trkpt lat="44.620638" lon="6.702267">
        <ele>2375.0</ele>
        <time>2020-07-16T08:15:23Z</time>
      </trkpt>
      <trkpt lat="44.620575" lon="6.702340">
        <ele>2377.5</ele>
        <time>2020-07-16T08:15:36Z</time>
      </trkpt>
      <trkpt lat="44.620500" lon="6.702400">
        <ele>2380.0</ele>
        <time>2020-07-16T08:15:45Z</time>
      </trkpt>
      <trkpt lat="44.620428" lon="6.702455">
        <ele>2380.7</ele>
        <time>2020-07-16T08:15:54Z</time>
      </trkpt>
      <trkpt lat="44.620347" lon="6.702482">
        <ele>2380.7</ele>
        <time>2020-07-16T08:16:03Z</time>
      </trkpt>
      <trkpt lat="44.620267" lon="6.702495">
        <ele>2380.0</ele>
        <time>2020-07-16T08:16:11Z</time>
      </trkpt>
      <trkpt lat="44.620182" lon="6.702510">
        <ele>2379.4</ele>
        <time>2020-07-16T08:16:20Z</time>
      </trkpt>
      <trkpt lat="44.620098" lon="6.702540">
        <ele>2379.7</ele>
        <time>2020-07-16T08:16:34Z</time>
      </trkpt>
      <trkpt lat="44.620022" lon="6.702573">
        <ele>2378.9</ele>
        <time>2020-07-16T08:17:39Z</time>
      </trkpt>
      <trkpt lat="44.619940" lon="6.702623">
        <ele>2379.2</ele>
        <time>2020-07-16T08:17:48Z</time>
      </trkpt>
      <trkpt lat="44.619867" lon="6.702695">
        <ele>2378.8</ele>
        <time>2020-07-16T08:18:08Z</time>
      </trkpt>
      <trkpt lat="44.619797" lon="6.702758">
        <ele>2380.3</ele>
        <time>2020-07-16T08:18:16Z</time>
      </trkpt>
      <trkpt lat="44.619722" lon="6.702817">
        <ele>2381.9</ele>
        <time>2020-07-16T08:18:26Z</time>
      </trkpt>
      <trkpt lat="44.619665" lon="6.702903">
        <ele>2384.2</ele>
        <time>2020-07-16T08:18:37Z</time>
      </trkpt>
      <trkpt lat="44.619600" lon="6.702977">
        <ele>2385.8</ele>
        <time>2020-07-16T08:18:48Z</time>
      </trkpt>
      <trkpt lat="44.619523" lon="6.703028">
        <ele>2386.9</ele>
        <time>2020-07-16T08:18:58Z</time>
      </trkpt>
      <trkpt lat="44.619458" lon="6.703110">
        <ele>2388.6</ele>
        <time>2020-07-16T08:19:11Z</time>
      </trkpt>
      <trkpt lat="44.619377" lon="6.703148">
        <ele>2391.8</ele>
        <time>2020-07-16T08:19:29Z</time>
      </trkpt>
      <trkpt lat="44.619305" lon="6.703218">
        <ele>2395.1</ele>
        <time>2020-07-16T08:19:47Z</time>
      </trkpt>
      <trkpt lat="44.619257" lon="6.703270">
        <ele>2397.1</ele>
        <time>2020-07-16T08:20:15Z</time>
      </trkpt>
      <trkpt lat="44.619180" lon="6.703335">
        <ele>2399.1</ele>
        <time>2020-07-16T08:20:27Z</time>
      </trkpt>
      <trkpt lat="44.619115" lon="6.703417">
        <ele>2403.7</ele>
        <time>2020-07-16T08:20:48Z</time>
      </trkpt>
      <trkpt lat="44.619045" lon="6.703490">
        <ele>2407.7</ele>
        <time>2020-07-16T08:21:11Z</time>
      </trkpt>
      <trkpt lat="44.618978" lon="6.703538">
        <ele>2410.3</ele>
        <time>2020-07-16T08:22:13Z</time>
      </trkpt>
      <trkpt lat="44.618893" lon="6.703563">
        <ele>2411.0</ele>
        <time>2020-07-16T08:23:46Z</time>
      </trkpt>
      <trkpt lat="44.618808" lon="6.703600">
        <ele>2413.6</ele>
        <time>2020-07-16T08:24:00Z</time>
      </trkpt>
      <trkpt lat="44.618725" lon="6.703630">
        <ele>2417.1</ele>
        <time>2020-07-16T08:24:16Z</time>
      </trkpt>
      <trkpt lat="44.618648" lon="6.703687">
        <ele>2419.7</ele>
        <time>2020-07-16T08:24:36Z</time>
      </trkpt>
      <trkpt lat="44.618562" lon="6.703698">
        <ele>2420.6</ele>
        <time>2020-07-16T08:25:31Z</time>
      </trkpt>
      <trkpt lat="44.618475" lon="6.703665">
        <ele>2423.3</ele>
        <time>2020-07-16T08:25:44Z</time>
      </trkpt>
      <trkpt lat="44.618392" lon="6.703672">
        <ele>2426.1</ele>
        <time>2020-07-16T08:25:57Z</time>
      </trkpt>
      <trkpt lat="44.618305" lon="6.703685">
        <ele>2428.4</ele>
        <time>2020-07-16T08:26:10Z</time>
      </trkpt>
      <trkpt lat="44.618222" lon="6.703692">
        <ele>2429.8</ele>
        <time>2020-07-16T08:26:22Z</time>
      </trkpt>
      <trkpt lat="44.618145" lon="6.703742">
        <ele>2431.9</ele>
        <time>2020-07-16T08:26:42Z</time>
      </trkpt>
      <trkpt lat="44.618062" lon="6.703770">
        <ele>2434.5</ele>
        <time>2020-07-16T08:26:56Z</time>
      </trkpt>
      <trkpt lat="44.617987" lon="6.703828">
        <ele>2438.1</ele>
        <time>2020-07-16T08:27:11Z</time>
      </trkpt>
      <trkpt lat="44.617935" lon="6.703908">
        <ele>2440.5</ele>
        <time>2020-07-16T08:27:51Z</time>
      </trkpt>
      <trkpt lat="44.617920" lon="6.703972">
        <ele>2441.5</ele>
        <time>2020-07-16T08:28:30Z</time>
      </trkpt>
      <trkpt lat="44.617910" lon="6.704097">
        <ele>2444.4</ele>
        <time>2020-07-16T08:28:41Z</time>
      </trkpt>
      <trkpt lat="44.617850" lon="6.704183">
        <ele>2445.0</ele>
        <time>2020-07-16T08:28:57Z</time>
      </trkpt>
      <trkpt lat="44.617777" lon="6.704250">
        <ele>2445.8</ele>
        <time>2020-07-16T08:29:19Z</time>
      </trkpt>
      <trkpt lat="44.617703" lon="6.704320">
        <ele>2446.3</ele>
        <time>2020-07-16T08:29:36Z</time>
      </trkpt>
      <trkpt lat="44.617615" lon="6.704342">
        <ele>2449.3</ele>
        <time>2020-07-16T08:29:57Z</time>
      </trkpt>
      <trkpt lat="44.617530" lon="6.704348">
        <ele>2451.5</ele>
        <time>2020-07-16T08:30:21Z</time>
      </trkpt>
      <trkpt lat="44.617445" lon="6.704350">
        <ele>2451.1</ele>
        <time>2020-07-16T08:30:29Z</time>
      </trkpt>
      <trkpt lat="44.617368" lon="6.704392">
        <ele>2451.7</ele>
        <time>2020-07-16T08:30:43Z</time>
      </trkpt>
      <trkpt lat="44.617298" lon="6.704455">
        <ele>2452.8</ele>
        <time>2020-07-16T08:30:55Z</time>
      </trkpt>
      <trkpt lat="44.617252" lon="6.704553">
        <ele>2453.4</ele>
        <time>2020-07-16T08:31:05Z</time>
      </trkpt>
      <trkpt lat="44.617170" lon="6.704605">
        <ele>2450.4</ele>
        <time>2020-07-16T08:33:21Z</time>
      </trkpt>
      <trkpt lat="44.617133" lon="6.704703">
        <ele>2449.5</ele>
        <time>2020-07-16T08:33:30Z</time>
      </trkpt>
      <trkpt lat="44.617113" lon="6.704822">
        <ele>2449.8</ele>
        <time>2020-07-16T08:33:40Z</time>
      </trkpt>
      <trkpt lat="44.617087" lon="6.704938">
        <ele>2449.4</ele>
        <time>2020-07-16T08:34:16Z</time>
      </trkpt>
      <trkpt lat="44.617043" lon="6.705042">
        <ele>2448.3</ele>
        <time>2020-07-16T08:34:39Z</time>
      </trkpt>
      <trkpt lat="44.616998" lon="6.705142">
        <ele>2446.1</ele>
        <time>2020-07-16T08:34:53Z</time>
      </trkpt>
      <trkpt lat="44.616935" lon="6.705222">
        <ele>2443.3</ele>
        <time>2020-07-16T08:35:04Z</time>
      </trkpt>
      <trkpt lat="44.616872" lon="6.705307">
        <ele>2441.7</ele>
        <time>2020-07-16T08:35:15Z</time>
      </trkpt>
      <trkpt lat="44.616822" lon="6.705410">
        <ele>2441.9</ele>
        <time>2020-07-16T08:35:30Z</time>
      </trkpt>
      <trkpt lat="44.616755" lon="6.705492">
        <ele>2440.6</ele>
        <time>2020-07-16T08:35:41Z</time>
      </trkpt>
      <trkpt lat="44.616732" lon="6.705610">
        <ele>2442.7</ele>
        <time>2020-07-16T08:36:06Z</time>
      </trkpt>
      <trkpt lat="44.616708" lon="6.705725">
        <ele>2447.6</ele>
        <time>2020-07-16T08:36:25Z</time>
      </trkpt>
      <trkpt lat="44.616645" lon="6.705805">
        <ele>2448.4</ele>
        <time>2020-07-16T08:37:15Z</time>
      </trkpt>
      <trkpt lat="44.616580" lon="6.705880">
        <ele>2449.9</ele>
        <time>2020-07-16T08:37:26Z</time>
      </trkpt>
      <trkpt lat="44.616515" lon="6.705958">
        <ele>2451.6</ele>
        <time>2020-07-16T08:37:37Z</time>
      </trkpt>
      <trkpt lat="44.616435" lon="6.706002">
        <ele>2452.5</ele>
        <time>2020-07-16T08:37:47Z</time>
      </trkpt>
      <trkpt lat="44.616367" lon="6.706078">
        <ele>2453.8</ele>
        <time>2020-07-16T08:37:57Z</time>
      </trkpt>
      <trkpt lat="44.616297" lon="6.706150">
        <ele>2454.2</ele>
        <time>2020-07-16T08:38:07Z</time>
      </trkpt>
      <trkpt lat="44.616237" lon="6.706232">
        <ele>2454.9</ele>
        <time>2020-07-16T08:38:20Z</time>
      </trkpt>
      <trkpt lat="44.616163" lon="6.706295">
        <ele>2456.1</ele>
        <time>2020-07-16T08:38:32Z</time>
      </trkpt>
      <trkpt lat="44.616082" lon="6.706347">
        <ele>2458.3</ele>
        <time>2020-07-16T08:38:49Z</time>
      </trkpt>
      <trkpt lat="44.615997" lon="6.706382">
        <ele>2460.0</ele>
        <time>2020-07-16T08:39:03Z</time>
      </trkpt>
      <trkpt lat="44.615912" lon="6.706385">
        <ele>2461.1</ele>
        <time>2020-07-16T08:39:16Z</time>
      </trkpt>
      <trkpt lat="44.615827" lon="6.706425">
        <ele>2463.8</ele>
        <time>2020-07-16T08:39:32Z</time>
      </trkpt>
      <trkpt lat="44.615773" lon="6.706527">
        <ele>2466.2</ele>
        <time>2020-07-16T08:39:51Z</time>
      </trkpt>
      <trkpt lat="44.615717" lon="6.706613">
        <ele>2468.7</ele>
        <time>2020-07-16T08:40:04Z</time>
      </trkpt>
      <trkpt lat="44.615678" lon="6.706723">
        <ele>2472.2</ele>
        <time>2020-07-16T08:40:18Z</time>
      </trkpt>
      <trkpt lat="44.615640" lon="6.706833">
        <ele>2474.1</ele>
        <time>2020-07-16T08:40:34Z</time>
      </trkpt>
      <trkpt lat="44.615592" lon="6.706935">
        <ele>2474.3</ele>
        <time>2020-07-16T08:40:46Z</time>
      </trkpt>
      <trkpt lat="44.615583" lon="6.707060">
        <ele>2476.8</ele>
        <time>2020-07-16T08:41:00Z</time>
      </trkpt>
      <trkpt lat="44.615553" lon="6.707165">
        <ele>2476.3</ele>
        <time>2020-07-16T08:41:10Z</time>
      </trkpt>
      <trkpt lat="44.615540" lon="6.707288">
        <ele>2473.9</ele>
        <time>2020-07-16T08:41:22Z</time>
      </trkpt>
      <trkpt lat="44.615487" lon="6.707388">
        <ele>2472.5</ele>
        <time>2020-07-16T08:41:35Z</time>
      </trkpt>
      <trkpt lat="44.615442" lon="6.707495">
        <ele>2473.8</ele>
        <time>2020-07-16T08:41:48Z</time>
      </trkpt>
      <trkpt lat="44.615375" lon="6.707575">
        <ele>2475.0</ele>
        <time>2020-07-16T08:42:26Z</time>
      </trkpt>
      <trkpt lat="44.615313" lon="6.707665">
        <ele>2477.3</ele>
        <time>2020-07-16T08:42:42Z</time>
      </trkpt>
      <trkpt lat="44.615335" lon="6.707777">
        <ele>2476.6</ele>
        <time>2020-07-16T08:43:14Z</time>
      </trkpt>
      <trkpt lat="44.615297" lon="6.707890">
        <ele>2479.3</ele>
        <time>2020-07-16T08:43:31Z</time>
      </trkpt>
      <trkpt lat="44.615210" lon="6.707910">
        <ele>2480.9</ele>
        <time>2020-07-16T08:43:46Z</time>
      </trkpt>
      <trkpt lat="44.615267" lon="6.708007">
        <ele>2483.8</ele>
        <time>2020-07-16T08:44:04Z</time>
      </trkpt>
      <trkpt lat="44.615185" lon="6.708053">
        <ele>2486.3</ele>
        <time>2020-07-16T08:44:24Z</time>
      </trkpt>
      <trkpt lat="44.615148" lon="6.708165">
        <ele>2491.3</ele>
        <time>2020-07-16T08:44:52Z</time>
      </trkpt>
      <trkpt lat="44.615070" lon="6.708222">
        <ele>2494.3</ele>
        <time>2020-07-16T08:45:09Z</time>
      </trkpt>
      <trkpt lat="44.614990" lon="6.708263">
        <ele>2495.4</ele>
        <time>2020-07-16T08:45:19Z</time>
      </trkpt>
      <trkpt lat="44.614908" lon="6.708315">
        <ele>2497.2</ele>
        <time>2020-07-16T08:45:34Z</time>
      </trkpt>
      <trkpt lat="44.614832" lon="6.708362">
        <ele>2498.6</ele>
        <time>2020-07-16T08:45:54Z</time>
      </trkpt>
      <trkpt lat="44.614773" lon="6.708448">
        <ele>2500.8</ele>
        <time>2020-07-16T08:46:04Z</time>
      </trkpt>
      <trkpt lat="44.614712" lon="6.708540">
        <ele>2503.2</ele>
        <time>2020-07-16T08:46:19Z</time>
      </trkpt>
      <trkpt lat="44.614637" lon="6.708598">
        <ele>2504.5</ele>
        <time>2020-07-16T08:46:32Z</time>
      </trkpt>
      <trkpt lat="44.614570" lon="6.708675">
        <ele>2506.0</ele>
        <time>2020-07-16T08:46:46Z</time>
      </trkpt>
      <trkpt lat="44.614485" lon="6.708705">
        <ele>2507.2</ele>
        <time>2020-07-16T08:46:58Z</time>
      </trkpt>
      <trkpt lat="44.614413" lon="6.708768">
        <ele>2507.0</ele>
        <time>2020-07-16T08:47:19Z</time>
      </trkpt>
      <trkpt lat="44.614345" lon="6.708842">
        <ele>2505.1</ele>
        <time>2020-07-16T08:47:35Z</time>
      </trkpt>
      <trkpt lat="44.614267" lon="6.708903">
        <ele>2502.8</ele>
        <time>2020-07-16T08:48:23Z</time>
      </trkpt>
      <trkpt lat="44.614197" lon="6.708973">
        <ele>2501.6</ele>
        <time>2020-07-16T08:48:32Z</time>
      </trkpt>
      <trkpt lat="44.614130" lon="6.709045">
        <ele>2502.8</ele>
        <time>2020-07-16T08:48:42Z</time>
      </trkpt>
      <trkpt lat="44.614062" lon="6.709123">
        <ele>2502.7</ele>
        <time>2020-07-16T08:49:13Z</time>
      </trkpt>
      <trkpt lat="44.614000" lon="6.709205">
        <ele>2502.9</ele>
        <time>2020-07-16T08:49:25Z</time>
      </trkpt>
      <trkpt lat="44.613960" lon="6.709293">
        <ele>2505.2</ele>
        <time>2020-07-16T08:49:44Z</time>
      </trkpt>
      <trkpt lat="44.613905" lon="6.709388">
        <ele>2507.0</ele>
        <time>2020-07-16T08:50:10Z</time>
      </trkpt>
      <trkpt lat="44.613828" lon="6.709452">
        <ele>2510.1</ele>
        <time>2020-07-16T08:50:30Z</time>
      </trkpt>
      <trkpt lat="44.613742" lon="6.709453">
        <ele>2511.6</ele>
        <time>2020-07-16T08:50:49Z</time>
      </trkpt>
      <trkpt lat="44.613697" lon="6.709562">
        <ele>2514.5</ele>
        <time>2020-07-16T08:51:09Z</time>
      </trkpt>
      <trkpt lat="44.613640" lon="6.709650">
        <ele>2515.3</ele>
        <time>2020-07-16T08:51:25Z</time>
      </trkpt>
      <trkpt lat="44.613585" lon="6.709748">
        <ele>2515.7</ele>
        <time>2020-07-16T08:51:35Z</time>
      </trkpt>
      <trkpt lat="44.613532" lon="6.709837">
        <ele>2517.1</ele>
        <time>2020-07-16T08:51:55Z</time>
      </trkpt>
      <trkpt lat="44.613485" lon="6.709935">
        <ele>2517.9</ele>
        <time>2020-07-16T08:52:05Z</time>
      </trkpt>
      <trkpt lat="44.613428" lon="6.710020">
        <ele>2518.8</ele>
        <time>2020-07-16T08:52:17Z</time>
      </trkpt>
      <trkpt lat="44.613375" lon="6.710117">
        <ele>2521.8</ele>
        <time>2020-07-16T08:52:32Z</time>
      </trkpt>
      <trkpt lat="44.613308" lon="6.710200">
        <ele>2524.4</ele>
        <time>2020-07-16T08:52:50Z</time>
      </trkpt>
      <trkpt lat="44.613252" lon="6.710292">
        <ele>2528.0</ele>
        <time>2020-07-16T08:53:07Z</time>
      </trkpt>
      <trkpt lat="44.613178" lon="6.710362">
        <ele>2529.8</ele>
        <time>2020-07-16T08:53:21Z</time>
      </trkpt>
      <trkpt lat="44.613095" lon="6.710408">
        <ele>2529.5</ele>
        <time>2020-07-16T08:53:33Z</time>
      </trkpt>
      <trkpt lat="44.613012" lon="6.710377">
        <ele>2527.4</ele>
        <time>2020-07-16T08:54:10Z</time>
      </trkpt>
      <trkpt lat="44.612927" lon="6.710382">
        <ele>2526.0</ele>
        <time>2020-07-16T08:54:22Z</time>
      </trkpt>
      <trkpt lat="44.612840" lon="6.710355">
        <ele>2524.9</ele>
        <time>2020-07-16T08:54:44Z</time>
      </trkpt>
      <trkpt lat="44.612758" lon="6.710390">
        <ele>2522.7</ele>
        <time>2020-07-16T08:54:59Z</time>
      </trkpt>
      <trkpt lat="44.612690" lon="6.710470">
        <ele>2522.9</ele>
        <time>2020-07-16T08:55:12Z</time>
      </trkpt>
      <trkpt lat="44.612620" lon="6.710548">
        <ele>2521.7</ele>
        <time>2020-07-16T08:55:23Z</time>
      </trkpt>
      <trkpt lat="44.612575" lon="6.710657">
        <ele>2517.2</ele>
        <time>2020-07-16T08:55:47Z</time>
      </trkpt>
      <trkpt lat="44.612515" lon="6.710747">
        <ele>2513.7</ele>
        <time>2020-07-16T08:56:05Z</time>
      </trkpt>
      <trkpt lat="44.612432" lon="6.710717">
        <ele>2516.3</ele>
        <time>2020-07-16T08:56:26Z</time>
      </trkpt>
      <trkpt lat="44.612352" lon="6.710753">
        <ele>2517.9</ele>
        <time>2020-07-16T08:56:39Z</time>
      </trkpt>
      <trkpt lat="44.612272" lon="6.710805">
        <ele>2521.6</ele>
        <time>2020-07-16T08:56:53Z</time>
      </trkpt>
      <trkpt lat="44.612218" lon="6.710905">
        <ele>2526.6</ele>
        <time>2020-07-16T08:57:11Z</time>
      </trkpt>
      <trkpt lat="44.612173" lon="6.711007">
        <ele>2530.4</ele>
        <time>2020-07-16T08:57:26Z</time>
      </trkpt>
      <trkpt lat="44.612122" lon="6.711105">
        <ele>2532.1</ele>
        <time>2020-07-16T08:57:43Z</time>
      </trkpt>
      <trkpt lat="44.612063" lon="6.711198">
        <ele>2533.1</ele>
        <time>2020-07-16T08:57:59Z</time>
      </trkpt>
      <trkpt lat="44.611987" lon="6.711232">
        <ele>2533.7</ele>
        <time>2020-07-16T08:58:08Z</time>
      </trkpt>
      <trkpt lat="44.611915" lon="6.711298">
        <ele>2534.4</ele>
        <time>2020-07-16T08:58:19Z</time>
      </trkpt>
      <trkpt lat="44.611848" lon="6.711375">
        <ele>2534.5</ele>
        <time>2020-07-16T08:58:29Z</time>
      </trkpt>
      <trkpt lat="44.611782" lon="6.711447">
        <ele>2532.7</ele>
        <time>2020-07-16T08:58:38Z</time>
      </trkpt>
      <trkpt lat="44.611723" lon="6.711535">
        <ele>2532.6</ele>
        <time>2020-07-16T08:58:49Z</time>
      </trkpt>
      <trkpt lat="44.611650" lon="6.711595">
        <ele>2533.1</ele>
        <time>2020-07-16T08:59:00Z</time>
      </trkpt>
      <trkpt lat="44.611583" lon="6.711658">
        <ele>2531.8</ele>
        <time>2020-07-16T08:59:26Z</time>
      </trkpt>
      <trkpt lat="44.611498" lon="6.711695">
        <ele>2528.3</ele>
        <time>2020-07-16T08:59:35Z</time>
      </trkpt>
      <trkpt lat="44.611417" lon="6.711740">
        <ele>2524.9</ele>
        <time>2020-07-16T08:59:48Z</time>
      </trkpt>
      <trkpt lat="44.611337" lon="6.711780">
        <ele>2522.2</ele>
        <time>2020-07-16T09:00:06Z</time>
      </trkpt>
      <trkpt lat="44.611263" lon="6.711788">
        <ele>2520.0</ele>
        <time>2020-07-16T09:00:29Z</time>
      </trkpt>
      <trkpt lat="44.611200" lon="6.711875">
        <ele>2516.2</ele>
        <time>2020-07-16T09:00:34Z</time>
      </trkpt>
      <trkpt lat="44.611123" lon="6.711940">
        <ele>2514.2</ele>
        <time>2020-07-16T09:00:53Z</time>
      </trkpt>
      <trkpt lat="44.611045" lon="6.711987">
        <ele>2512.1</ele>
        <time>2020-07-16T09:01:09Z</time>
      </trkpt>
      <trkpt lat="44.610990" lon="6.712073">
        <ele>2511.9</ele>
        <time>2020-07-16T09:01:43Z</time>
      </trkpt>
      <trkpt lat="44.610940" lon="6.712173">
        <ele>2510.7</ele>
        <time>2020-07-16T09:01:56Z</time>
      </trkpt>
      <trkpt lat="44.610875" lon="6.712250">
        <ele>2509.4</ele>
        <time>2020-07-16T09:02:10Z</time>
      </trkpt>
      <trkpt lat="44.610792" lon="6.712297">
        <ele>2509.0</ele>
        <time>2020-07-16T09:02:24Z</time>
      </trkpt>
      <trkpt lat="44.610707" lon="6.712293">
        <ele>2512.8</ele>
        <time>2020-07-16T09:02:35Z</time>
      </trkpt>
      <trkpt lat="44.610620" lon="6.712278">
        <ele>2518.7</ele>
        <time>2020-07-16T09:02:48Z</time>
      </trkpt>
      <trkpt lat="44.610545" lon="6.712268">
        <ele>2522.9</ele>
        <time>2020-07-16T09:03:39Z</time>
      </trkpt>
    </trkseg>
  </trk>
</gpx>
